Time;durP1;ratioP1;P1;durP2;ratioP2;P2;SDS_P1;SDS_P2;PMS_P1;PMS_P2;Temp;Humidity;BMP_temperature;BMP_pressure;BME280_temperature;BME280_humidity;BME280_pressure;Samples;Min_cycle;Max_cycle;Signal;HPM_P1;HPM_P2
2022/09/07 00:00:38;;;;;;;;;;;21.70;99.90;;;;;;4146007;28;19918;-68
2022/09/07 00:02:39;;;;;;;;;;;21.70;99.90;;;;;;4146955;28;20410;-68
2022/09/07 00:04:39;;;;;;;;;;;21.70;99.90;;;;;;4147252;28;19989;-68
2022/09/07 00:06:40;;;;;;;;;;;21.70;99.90;;;;;;4146762;28;19909;-68
2022/09/07 00:08:42;;;;;;;;;;;21.60;99.90;;;;;;4147097;28;19960;-68
2022/09/07 00:10:56;;;;;;;;;;;21.50;99.90;;;;;;4147555;28;19971;-68
2022/09/07 00:12:57;;;;;;;;;;;21.60;99.90;;;;;;4146627;28;19967;-68
2022/09/07 00:14:57;;;;;;;;;;;21.60;99.90;;;;;;4146928;28;19909;-68
2022/09/07 00:16:58;;;;;;;;;;;21.50;99.90;;;;;;4146136;28;20007;-69
2022/09/07 00:18:59;;;;;;;;;;;21.50;99.90;;;;;;4146888;28;19983;-68
2022/09/07 00:21:03;;;;;;;;;;;21.50;99.90;;;;;;4148340;28;19913;-70
2022/09/07 00:23:04;;;;;;;;;;;21.60;99.90;;;;;;4147399;28;20336;-70
2022/09/07 00:25:04;;;;;;;;;;;21.60;99.90;;;;;;4146667;28;19916;-71
2022/09/07 00:27:05;;;;;;;;;;;21.60;99.90;;;;;;4145946;28;19910;-70
2022/09/07 00:29:06;;;;;;;;;;;21.60;99.90;;;;;;4146779;28;19909;-69
2022/09/07 00:31:11;;;;;;;;;;;21.70;99.90;;;;;;4145647;28;19913;-70
2022/09/07 00:33:12;;;;;;;;;;;21.70;99.90;;;;;;4145804;28;19914;-70
2022/09/07 00:35:12;;;;;;;;;;;21.70;99.90;;;;;;4146430;28;21462;-70
2022/09/07 00:37:13;;;;;;;;;;;21.70;99.90;;;;;;4146989;28;19999;-70
2022/09/07 00:39:13;;;;;;;;;;;21.70;99.90;;;;;;4147371;28;19972;-69
2022/09/07 00:41:15;;;;;;;;;;;21.70;99.90;;;;;;4146889;28;19913;-69
2022/09/07 00:43:27;;;;;;;;;;;21.70;99.90;;;;;;4145993;28;20376;-69
2022/09/07 00:45:28;;;;;;;;;;;21.60;99.90;;;;;;4144444;28;19914;-69
2022/09/07 00:47:33;;;;;;;;;;;21.60;99.90;;;;;;4146591;28;19910;-69
2022/09/07 00:49:34;;;;;;;;;;;21.50;99.90;;;;;;4148000;28;19918;-68
2022/09/07 00:51:36;;;;;;;;;;;21.50;99.90;;;;;;4145987;28;19933;-69
2022/09/07 00:53:52;;;;;;;;;;;21.50;99.90;;;;;;4146444;28;19918;-69
2022/09/07 00:55:53;;;;;;;;;;;21.50;99.90;;;;;;4144985;28;19933;-68
2022/09/07 00:57:54;;;;;;;;;;;21.40;99.90;;;;;;4146191;28;19909;-68
2022/09/07 00:59:56;;;;;;;;;;;21.40;99.90;;;;;;4142878;28;20013;-68
2022/09/07 01:01:57;;;;;;;;;;;21.40;99.90;;;;;;4141540;28;19916;-69
2022/09/07 01:03:58;;;;;;;;;;;21.40;99.90;;;;;;4145419;28;19925;-69
2022/09/07 01:06:15;;;;;;;;;;;21.40;99.90;;;;;;4145515;28;20004;-69
2022/09/07 01:08:16;;;;;;;;;;;21.30;99.90;;;;;;4146007;28;20419;-69
2022/09/07 01:10:16;;;;;;;;;;;21.10;99.90;;;;;;4147119;28;19952;-69
2022/09/07 01:12:17;;;;;;;;;;;21.10;99.90;;;;;;4145939;28;20432;-69
2022/09/07 01:14:22;;;;;;;;;;;21.10;99.90;;;;;;4146074;28;19910;-69
2022/09/07 01:16:22;;;;;;;;;;;21.10;99.90;;;;;;4141525;28;19971;-69
2022/09/07 01:18:26;;;;;;;;;;;21.00;99.90;;;;;;4145333;28;20368;-69
2022/09/07 01:20:33;;;;;;;;;;;20.90;99.90;;;;;;4144426;28;20470;-69
2022/09/07 01:22:44;;;;;;;;;;;20.80;99.90;;;;;;4145601;28;19992;-68
2022/09/07 01:24:48;;;;;;;;;;;20.90;99.90;;;;;;4144296;28;19910;-68
2022/09/07 01:27:07;;;;;;;;;;;20.90;99.90;;;;;;4144623;28;19968;-68
2022/09/07 01:29:15;;;;;;;;;;;20.90;99.90;;;;;;4143987;28;19917;-68
2022/09/07 01:31:23;;;;;;;;;;;20.90;99.90;;;;;;4146696;28;19956;-69
2022/09/07 01:33:39;;;;;;;;;;;20.90;99.90;;;;;;4143425;28;20389;-67
2022/09/07 01:35:52;;;;;;;;;;;20.90;99.90;;;;;;4144484;28;20064;-68
2022/09/07 01:38:07;;;;;;;;;;;20.90;99.90;;;;;;4144465;28;19963;-68
2022/09/07 01:40:12;;;;;;;;;;;20.90;99.90;;;;;;4144230;28;19920;-68
2022/09/07 01:42:16;;;;;;;;;;;20.90;99.90;;;;;;4143296;28;19952;-68
2022/09/07 01:44:22;;;;;;;;;;;21.00;99.90;;;;;;4144696;28;20269;-68
2022/09/07 01:46:26;;;;;;;;;;;21.00;99.90;;;;;;4142736;28;19909;-67
2022/09/07 01:48:27;;;;;;;;;;;21.00;99.90;;;;;;4145435;28;19921;-68
2022/09/07 01:50:34;;;;;;;;;;;21.10;99.90;;;;;;4147659;28;20645;-68
2022/09/07 01:52:35;;;;;;;;;;;21.10;99.90;;;;;;4145838;28;19914;-68
2022/09/07 01:54:47;;;;;;;;;;;21.10;99.90;;;;;;4143240;28;20377;-68
2022/09/07 01:56:49;;;;;;;;;;;21.20;99.90;;;;;;4129463;28;19910;-67
2022/09/07 01:58:52;;;;;;;;;;;21.20;99.90;;;;;;4142179;28;19914;-68
2022/09/07 02:00:54;;;;;;;;;;;21.20;99.90;;;;;;4145855;28;19996;-67
2022/09/07 02:03:07;;;;;;;;;;;21.20;99.90;;;;;;4134255;28;19952;-67
2022/09/07 02:05:10;;;;;;;;;;;21.20;99.90;;;;;;4145582;28;19925;-68
2022/09/07 02:07:14;;;;;;;;;;;21.20;99.90;;;;;;4145866;28;19940;-68
2022/09/07 02:09:21;;;;;;;;;;;21.20;99.90;;;;;;4145257;28;19917;-68
2022/09/07 02:11:24;;;;;;;;;;;21.20;99.90;;;;;;4146333;28;19913;-68
2022/09/07 02:13:34;;;;;;;;;;;21.20;99.90;;;;;;4145293;28;19958;-67
2022/09/07 02:15:43;;;;;;;;;;;21.20;99.90;;;;;;4144943;28;19916;-67
2022/09/07 02:17:54;;;;;;;;;;;21.20;99.90;;;;;;4145811;28;20384;-68
2022/09/07 02:20:00;;;;;;;;;;;21.10;99.90;;;;;;4146576;28;20012;-69
2022/09/07 02:22:07;;;;;;;;;;;21.20;99.90;;;;;;4144470;28;19952;-68
2022/09/07 02:24:10;;;;;;;;;;;21.20;99.90;;;;;;4144926;28;19979;-68
2022/09/07 02:26:14;;;;;;;;;;;21.10;99.90;;;;;;4144932;28;19914;-68
2022/09/07 02:28:21;;;;;;;;;;;21.20;99.90;;;;;;4145260;28;19967;-68
2022/09/07 02:30:21;;;;;;;;;;;21.20;99.90;;;;;;4144373;28;19917;-68
2022/09/07 02:32:22;;;;;;;;;;;21.10;99.90;;;;;;4146420;28;20378;-68
2022/09/07 02:34:22;;;;;;;;;;;21.10;99.90;;;;;;4144412;28;19916;-68
2022/09/07 02:36:25;;;;;;;;;;;21.10;99.90;;;;;;4144375;28;19960;-68
2022/09/07 02:38:25;;;;;;;;;;;21.10;99.90;;;;;;4144731;28;19910;-68
2022/09/07 02:40:26;;;;;;;;;;;21.10;99.90;;;;;;4144789;28;19920;-68
2022/09/07 02:42:31;;;;;;;;;;;21.10;99.90;;;;;;4144589;28;19913;-68
2022/09/07 02:44:34;;;;;;;;;;;21.10;99.90;;;;;;4144940;28;19935;-68
2022/09/07 02:47:04;;;;;;;;;;;21.10;99.90;;;;;;4144652;28;19909;-68
2022/09/07 02:49:12;;;;;;;;;;;21.10;99.90;;;;;;4093832;28;20005;-68
2022/09/07 02:51:26;;;;;;;;;;;21.10;99.90;;;;;;4143757;28;19910;-69
2022/09/07 02:53:45;;;;;;;;;;;21.10;99.90;;;;;;4142102;28;19926;-68
2022/09/07 02:55:58;;;;;;;;;;;21.00;99.90;;;;;;4142133;28;20307;-68
2022/09/07 02:58:25;;;;;;;;;;;21.00;99.90;;;;;;4144444;28;19909;-68
2022/09/07 03:00:28;;;;;;;;;;;21.00;99.90;;;;;;4120201;28;20000;-68
2022/09/07 03:02:37;;;;;;;;;;;21.00;99.90;;;;;;4143221;28;19910;-68
2022/09/07 03:04:50;;;;;;;;;;;21.00;99.90;;;;;;4144673;28;20028;-68
2022/09/07 03:06:53;;;;;;;;;;;21.00;99.90;;;;;;4141090;28;19916;-68
2022/09/07 03:08:55;;;;;;;;;;;21.00;99.90;;;;;;4144689;28;19937;-68
2022/09/07 03:10:57;;;;;;;;;;;20.90;99.90;;;;;;4142651;28;19909;-68
2022/09/07 03:12:57;;;;;;;;;;;20.90;99.90;;;;;;4143876;28;19987;-68
2022/09/07 03:14:57;;;;;;;;;;;20.90;99.90;;;;;;4144685;28;19916;-68
2022/09/07 03:16:58;;;;;;;;;;;20.90;99.90;;;;;;4143831;28;19988;-69
2022/09/07 03:18:59;;;;;;;;;;;20.90;99.90;;;;;;4144161;28;20373;-68
2022/09/07 03:20:59;;;;;;;;;;;20.90;99.90;;;;;;4143549;28;19917;-68
2022/09/07 03:23:00;;;;;;;;;;;20.90;99.90;;;;;;4145168;28;19992;-68
2022/09/07 03:25:03;;;;;;;;;;;20.80;99.90;;;;;;4144867;28;19913;-68
2022/09/07 03:27:03;;;;;;;;;;;20.80;99.90;;;;;;4144677;28;19917;-68
2022/09/07 03:29:04;;;;;;;;;;;20.80;99.90;;;;;;4145024;28;19909;-68
2022/09/07 03:31:05;;;;;;;;;;;20.80;99.90;;;;;;4144626;28;19917;-69
2022/09/07 03:33:06;;;;;;;;;;;20.80;99.90;;;;;;4145163;28;19913;-68
2022/09/07 03:35:07;;;;;;;;;;;20.80;99.90;;;;;;4144458;28;19917;-68
2022/09/07 03:37:07;;;;;;;;;;;20.80;99.90;;;;;;4144572;28;19913;-68
2022/09/07 03:39:09;;;;;;;;;;;20.80;99.90;;;;;;4145755;28;19909;-68
2022/09/07 03:41:11;;;;;;;;;;;20.70;99.90;;;;;;4145640;28;19916;-68
2022/09/07 03:43:11;;;;;;;;;;;20.70;99.90;;;;;;4145114;28;19916;-68
2022/09/07 03:45:12;;;;;;;;;;;20.70;99.90;;;;;;4144316;28;19964;-69
2022/09/07 03:47:12;;;;;;;;;;;20.70;99.90;;;;;;4143719;28;19909;-68
2022/09/07 03:49:14;;;;;;;;;;;20.70;99.90;;;;;;4144333;28;19917;-68
2022/09/07 03:51:15;;;;;;;;;;;20.60;99.90;;;;;;4143319;28;19947;-68
2022/09/07 03:53:15;;;;;;;;;;;20.60;99.90;;;;;;4144893;28;20377;-68
2022/09/07 03:55:15;;;;;;;;;;;20.60;99.90;;;;;;4144140;28;19967;-68
2022/09/07 03:57:19;;;;;;;;;;;20.60;99.90;;;;;;4144851;28;19916;-68
2022/09/07 03:59:19;;;;;;;;;;;20.60;99.90;;;;;;4144018;28;19957;-68
2022/09/07 04:01:21;;;;;;;;;;;20.60;99.90;;;;;;4144699;28;20376;-68
2022/09/07 04:03:21;;;;;;;;;;;20.60;99.90;;;;;;4144176;28;20337;-69
2022/09/07 04:05:22;;;;;;;;;;;20.60;99.90;;;;;;4140460;28;19917;-69
2022/09/07 04:07:22;;;;;;;;;;;20.60;99.90;;;;;;4142442;28;19916;-68
2022/09/07 04:09:23;;;;;;;;;;;20.70;99.90;;;;;;4142582;28;19940;-69
2022/09/07 04:11:23;;;;;;;;;;;20.70;99.90;;;;;;4143129;28;19914;-68
2022/09/07 04:13:25;;;;;;;;;;;20.70;99.90;;;;;;4143524;28;20369;-69
2022/09/07 04:15:27;;;;;;;;;;;20.70;99.90;;;;;;4143392;28;19913;-68
2022/09/07 04:17:27;;;;;;;;;;;20.70;99.90;;;;;;4144747;28;19913;-68
2022/09/07 04:19:28;;;;;;;;;;;20.70;99.90;;;;;;4146789;28;19917;-67
2022/09/07 04:21:30;;;;;;;;;;;20.80;99.90;;;;;;4141078;28;19936;-68
2022/09/07 04:23:31;;;;;;;;;;;20.80;99.90;;;;;;4147033;28;19913;-68
2022/09/07 04:25:32;;;;;;;;;;;20.80;99.90;;;;;;4146188;28;20344;-68
2022/09/07 04:27:32;;;;;;;;;;;20.80;99.90;;;;;;4140929;28;19910;-68
2022/09/07 04:29:33;;;;;;;;;;;20.90;99.90;;;;;;4145296;28;19992;-68
2022/09/07 04:31:34;;;;;;;;;;;20.80;99.90;;;;;;4145338;28;19915;-68
2022/09/07 04:33:34;;;;;;;;;;;20.90;99.90;;;;;;4146407;28;20000;-69
2022/09/07 04:35:35;;;;;;;;;;;20.80;99.90;;;;;;4144650;28;20353;-68
2022/09/07 04:37:36;;;;;;;;;;;20.90;99.90;;;;;;4144906;28;20395;-69
2022/09/07 04:39:36;;;;;;;;;;;20.90;99.90;;;;;;4146028;28;19917;-68
2022/09/07 04:41:37;;;;;;;;;;;20.90;99.90;;;;;;4147899;28;19913;-69
2022/09/07 04:43:38;;;;;;;;;;;20.90;99.90;;;;;;4147501;28;19914;-68
2022/09/07 04:45:39;;;;;;;;;;;20.90;99.90;;;;;;4145870;28;19910;-68
2022/09/07 04:47:45;;;;;;;;;;;20.90;99.90;;;;;;4145514;28;19960;-68
2022/09/07 04:49:48;;;;;;;;;;;20.90;99.90;;;;;;4138413;28;20666;-69
2022/09/07 04:51:49;;;;;;;;;;;20.90;99.90;;;;;;4147753;28;20312;-69
2022/09/07 04:53:50;;;;;;;;;;;20.90;99.90;;;;;;4145749;28;19913;-69
2022/09/07 04:55:51;;;;;;;;;;;20.80;99.90;;;;;;4146457;28;20098;-69
2022/09/07 04:57:51;;;;;;;;;;;20.90;99.90;;;;;;4146429;28;19996;-70
2022/09/07 04:59:52;;;;;;;;;;;20.80;99.90;;;;;;4145859;28;19910;-71
2022/09/07 05:01:52;;;;;;;;;;;20.90;99.90;;;;;;4144222;28;19937;-70
2022/09/07 05:03:53;;;;;;;;;;;20.80;99.90;;;;;;4143512;28;20197;-71
2022/09/07 05:05:53;;;;;;;;;;;20.90;99.90;;;;;;4141903;28;19979;-70
2022/09/07 05:07:54;;;;;;;;;;;20.90;99.90;;;;;;4146243;28;19910;-70
2022/09/07 05:09:55;;;;;;;;;;;20.90;99.90;;;;;;4145828;28;19917;-70
2022/09/07 05:11:56;;;;;;;;;;;20.80;99.90;;;;;;4144013;28;20276;-69
2022/09/07 05:13:57;;;;;;;;;;;20.90;99.90;;;;;;4146835;28;19913;-69
2022/09/07 05:15:58;;;;;;;;;;;20.80;99.90;;;;;;4145933;28;19964;-70
2022/09/07 05:17:59;;;;;;;;;;;20.80;99.90;;;;;;4146556;28;19956;-70
2022/09/07 05:19:59;;;;;;;;;;;20.90;99.90;;;;;;4146068;28;19910;-70
2022/09/07 05:22:00;;;;;;;;;;;20.80;99.90;;;;;;4143694;28;20009;-69
2022/09/07 05:24:00;;;;;;;;;;;20.90;99.90;;;;;;4145016;28;20391;-70
2022/09/07 05:26:02;;;;;;;;;;;20.80;99.90;;;;;;4142986;28;19910;-70
2022/09/07 05:28:03;;;;;;;;;;;20.80;99.90;;;;;;4139090;28;19967;-70
2022/09/07 05:30:03;;;;;;;;;;;20.80;99.90;;;;;;4142117;28;20281;-70
2022/09/07 05:32:04;;;;;;;;;;;20.90;99.90;;;;;;4141575;28;19960;-71
2022/09/07 05:34:04;;;;;;;;;;;20.80;99.90;;;;;;4143561;28;19914;-71
2022/09/07 05:36:05;;;;;;;;;;;20.80;99.90;;;;;;4143240;28;19915;-71
2022/09/07 05:38:06;;;;;;;;;;;20.80;99.90;;;;;;4143947;28;19913;-69
2022/09/07 05:40:06;;;;;;;;;;;20.80;99.90;;;;;;4142750;28;19948;-71
2022/09/07 05:42:07;;;;;;;;;;;20.80;99.90;;;;;;4139294;28;19936;-70
2022/09/07 05:44:08;;;;;;;;;;;20.80;99.90;;;;;;4139347;28;20000;-71
2022/09/07 05:46:09;;;;;;;;;;;20.80;99.90;;;;;;4144449;28;21132;-70
2022/09/07 05:48:10;;;;;;;;;;;20.80;99.90;;;;;;4143919;28;19909;-70
2022/09/07 05:50:10;;;;;;;;;;;20.80;99.90;;;;;;4143743;28;19917;-72
2022/09/07 05:52:11;;;;;;;;;;;20.80;99.90;;;;;;4145309;28;20334;-71
2022/09/07 05:54:11;;;;;;;;;;;20.80;99.90;;;;;;4144621;28;19990;-70
2022/09/07 05:56:12;;;;;;;;;;;20.80;99.90;;;;;;4144419;28;20250;-70
2022/09/07 05:58:13;;;;;;;;;;;20.80;99.90;;;;;;4141980;28;19993;-72
2022/09/07 06:00:13;;;;;;;;;;;20.80;99.90;;;;;;4145334;28;19913;-71
2022/09/07 06:02:14;;;;;;;;;;;20.80;99.90;;;;;;4145631;28;19909;-71
2022/09/07 06:04:15;;;;;;;;;;;20.80;99.90;;;;;;4145090;28;19925;-71
2022/09/07 06:06:17;;;;;;;;;;;20.80;99.90;;;;;;4143140;28;19917;-71
2022/09/07 06:08:17;;;;;;;;;;;20.80;99.90;;;;;;4143975;28;19909;-70
2022/09/07 06:10:18;;;;;;;;;;;20.80;99.90;;;;;;4146040;28;19910;-71
2022/09/07 06:12:18;;;;;;;;;;;20.80;99.90;;;;;;4145254;28;19910;-71
2022/09/07 06:14:19;;;;;;;;;;;20.90;99.90;;;;;;4144072;28;19917;-71
2022/09/07 06:16:20;;;;;;;;;;;20.90;99.90;;;;;;4143226;28;19914;-71
2022/09/07 06:18:20;;;;;;;;;;;20.90;99.90;;;;;;4144806;28;19909;-71
2022/09/07 06:20:21;;;;;;;;;;;21.00;99.90;;;;;;4145246;28;19983;-71
2022/09/07 06:22:21;;;;;;;;;;;21.10;99.90;;;;;;4144703;28;19909;-71
2022/09/07 06:24:21;;;;;;;;;;;21.00;99.90;;;;;;4145050;28;19921;-71
2022/09/07 06:26:22;;;;;;;;;;;21.20;99.90;;;;;;4144527;28;19996;-70
2022/09/07 06:28:26;;;;;;;;;;;21.20;99.90;;;;;;4142430;28;19910;-71
2022/09/07 06:30:28;;;;;;;;;;;21.30;99.90;;;;;;4144918;28;19917;-70
2022/09/07 06:32:28;;;;;;;;;;;21.50;99.90;;;;;;4144097;28;19914;-71
2022/09/07 06:34:29;;;;;;;;;;;21.60;99.90;;;;;;4144374;28;19955;-71
2022/09/07 06:36:29;;;;;;;;;;;21.80;99.90;;;;;;4144205;28;19917;-70
2022/09/07 06:38:31;;;;;;;;;;;21.90;99.90;;;;;;4142588;28;19963;-71
2022/09/07 06:40:32;;;;;;;;;;;22.00;99.90;;;;;;4142113;28;20276;-71
2022/09/07 06:42:32;;;;;;;;;;;22.10;99.90;;;;;;4143856;28;19945;-70
2022/09/07 06:44:33;;;;;;;;;;;22.10;99.90;;;;;;4138304;28;20468;-71
2022/09/07 06:46:33;;;;;;;;;;;22.10;99.90;;;;;;4142120;28;19913;-71
2022/09/07 06:48:34;;;;;;;;;;;22.10;99.90;;;;;;4142631;28;19909;-70
2022/09/07 06:50:35;;;;;;;;;;;22.10;99.90;;;;;;4143044;28;20008;-70
2022/09/07 06:52:36;;;;;;;;;;;21.90;99.90;;;;;;4141673;28;20300;-71
2022/09/07 06:54:38;;;;;;;;;;;21.90;99.90;;;;;;4142623;28;19909;-70
2022/09/07 06:56:38;;;;;;;;;;;21.80;99.90;;;;;;4137480;28;19910;-71
2022/09/07 06:58:39;;;;;;;;;;;21.80;99.90;;;;;;4143659;28;20333;-70
2022/09/07 07:00:40;;;;;;;;;;;21.80;99.90;;;;;;4143035;28;19956;-71
2022/09/07 07:02:40;;;;;;;;;;;21.80;99.90;;;;;;4143017;28;19992;-71
2022/09/07 07:04:41;;;;;;;;;;;21.80;99.90;;;;;;4143898;28;20392;-70
2022/09/07 07:06:41;;;;;;;;;;;21.80;99.90;;;;;;4142989;28;19975;-70
2022/09/07 07:08:42;;;;;;;;;;;21.90;99.90;;;;;;4144601;28;19941;-71
2022/09/07 07:10:43;;;;;;;;;;;22.00;99.90;;;;;;4143162;28;19971;-71
2022/09/07 07:12:44;;;;;;;;;;;22.10;99.90;;;;;;4144073;28;19956;-70
2022/09/07 07:14:44;;;;;;;;;;;22.20;99.90;;;;;;4141908;28;19916;-70
2022/09/07 07:16:45;;;;;;;;;;;22.10;99.90;;;;;;4142129;28;19992;-70
2022/09/07 07:18:50;;;;;;;;;;;22.10;99.90;;;;;;4142380;28;20256;-71
2022/09/07 07:20:51;;;;;;;;;;;22.10;99.90;;;;;;4141776;28;19909;-71
2022/09/07 07:22:51;;;;;;;;;;;22.00;99.90;;;;;;4143998;28;19967;-71
2022/09/07 07:24:52;;;;;;;;;;;22.00;99.90;;;;;;4143794;28;19963;-70
2022/09/07 07:26:52;;;;;;;;;;;21.90;99.90;;;;;;4143077;28;20403;-71
2022/09/07 07:28:54;;;;;;;;;;;21.80;99.90;;;;;;4144695;28;19921;-71
2022/09/07 07:30:55;;;;;;;;;;;21.80;99.90;;;;;;4141830;28;19936;-71
2022/09/07 07:32:58;;;;;;;;;;;21.80;99.90;;;;;;4142349;28;19925;-71
2022/09/07 07:35:00;;;;;;;;;;;21.70;99.90;;;;;;4142701;28;19916;-70
2022/09/07 07:37:00;;;;;;;;;;;21.70;99.90;;;;;;4142790;28;19909;-70
2022/09/07 07:39:02;;;;;;;;;;;21.70;99.90;;;;;;4141470;28;19915;-71
2022/09/07 07:41:04;;;;;;;;;;;21.70;99.90;;;;;;4140666;28;19909;-70
2022/09/07 07:43:05;;;;;;;;;;;21.60;99.90;;;;;;4143948;28;19916;-70
2022/09/07 07:45:06;;;;;;;;;;;21.60;99.90;;;;;;4143300;28;19960;-70
2022/09/07 07:47:07;;;;;;;;;;;21.60;99.90;;;;;;4143589;28;20320;-70
2022/09/07 07:49:08;;;;;;;;;;;21.60;99.90;;;;;;4143268;28;19917;-70
2022/09/07 07:51:10;;;;;;;;;;;21.50;99.90;;;;;;4142845;28;20392;-71
2022/09/07 07:53:11;;;;;;;;;;;21.50;99.90;;;;;;4143518;28;19913;-70
2022/09/07 07:55:11;;;;;;;;;;;21.50;99.90;;;;;;4145827;28;20009;-75
2022/09/07 07:57:11;;;;;;;;;;;21.60;99.90;;;;;;4146921;28;19909;-70
2022/09/07 07:59:12;;;;;;;;;;;21.50;99.90;;;;;;4145619;28;19932;-72
2022/09/07 08:01:14;;;;;;;;;;;21.50;99.90;;;;;;4146176;28;19945;-72
2022/09/07 08:03:14;;;;;;;;;;;21.50;99.90;;;;;;4146856;28;20316;-72
2022/09/07 08:05:16;;;;;;;;;;;21.40;99.90;;;;;;4144731;28;19922;-70
2022/09/07 08:07:16;;;;;;;;;;;21.40;99.90;;;;;;4144940;28;20032;-71
2022/09/07 08:09:16;;;;;;;;;;;21.40;99.90;;;;;;4145791;28;19918;-71
2022/09/07 08:11:18;;;;;;;;;;;21.40;99.90;;;;;;4145465;28;20440;-72
2022/09/07 08:13:20;;;;;;;;;;;21.40;99.90;;;;;;4145580;28;20346;-72
2022/09/07 08:15:20;;;;;;;;;;;21.30;99.90;;;;;;4145065;28;19944;-73
2022/09/07 08:17:21;;;;;;;;;;;21.30;99.90;;;;;;4146711;28;19924;-72
2022/09/07 08:19:21;;;;;;;;;;;21.30;99.90;;;;;;4147561;28;19918;-73
2022/09/07 08:21:22;;;;;;;;;;;21.30;99.90;;;;;;4145951;28;19916;-71
2022/09/07 08:23:22;;;;;;;;;;;21.30;99.90;;;;;;4145147;28;20329;-73
2022/09/07 08:25:24;;;;;;;;;;;21.30;99.90;;;;;;4145899;28;19921;-73
2022/09/07 08:27:24;;;;;;;;;;;21.20;99.90;;;;;;4144957;28;19952;-74
2022/09/07 08:29:25;;;;;;;;;;;21.20;99.90;;;;;;4145375;28;19909;-72
2022/09/07 08:31:26;;;;;;;;;;;21.20;99.90;;;;;;4145426;28;19963;-72
2022/09/07 08:33:26;;;;;;;;;;;21.20;99.90;;;;;;4146404;28;19990;-72
2022/09/07 08:35:27;;;;;;;;;;;21.20;99.90;;;;;;4145800;28;20340;-73
2022/09/07 08:37:27;;;;;;;;;;;21.20;99.90;;;;;;4145912;28;19921;-71
2022/09/07 08:39:28;;;;;;;;;;;21.20;99.90;;;;;;4145695;28;19920;-71
2022/09/07 08:41:35;;;;;;;;;;;21.20;99.90;;;;;;4144876;28;19913;-74
2022/09/07 08:43:43;;;;;;;;;;;21.20;99.90;;;;;;4145925;28;19939;-71
2022/09/07 08:45:52;;;;;;;;;;;21.20;99.90;;;;;;4145112;28;19937;-71
2022/09/07 08:47:52;;;;;;;;;;;21.20;99.90;;;;;;4145837;28;20467;-73
2022/09/07 08:50:00;;;;;;;;;;;21.20;99.90;;;;;;4145543;28;20011;-72
2022/09/07 08:52:08;;;;;;;;;;;21.20;99.90;;;;;;4144586;28;19909;-72
2022/09/07 08:54:13;;;;;;;;;;;21.20;99.90;;;;;;4142996;28;20300;-73
2022/09/07 08:56:29;;;;;;;;;;;21.30;99.90;;;;;;4144953;28;19916;-72
2022/09/07 08:58:54;;;;;;;;;;;21.30;99.90;;;;;;4143983;28;19910;-72
2022/09/07 09:00:54;;;;;;;;;;;21.30;99.90;;;;;;4143663;28;19945;-74
2022/09/07 09:02:56;;;;;;;;;;;21.30;99.90;;;;;;4145874;28;19972;-73
2022/09/07 09:04:56;;;;;;;;;;;21.30;99.90;;;;;;4141949;28;19933;-73
2022/09/07 09:07:04;;;;;;;;;;;21.30;99.90;;;;;;4143840;28;19918;-73
2022/09/07 09:09:24;;;;;;;;;;;21.30;99.90;;;;;;4144749;28;20323;-72
2022/09/07 09:11:36;;;;;;;;;;;21.30;99.90;;;;;;4145087;28;20265;-75
2022/09/07 09:13:46;;;;;;;;;;;21.30;99.90;;;;;;4144451;28;19913;-73
2022/09/07 09:15:51;;;;;;;;;;;21.30;99.90;;;;;;4142502;28;20423;-73
2022/09/07 09:18:17;;;;;;;;;;;21.40;99.90;;;;;;4145874;28;19910;-74
2022/09/07 09:20:21;;;;;;;;;;;21.40;99.90;;;;;;4107003;28;19940;-73
2022/09/07 09:22:24;;;;;;;;;;;21.50;99.90;;;;;;4145275;28;19918;-74
2022/09/07 09:24:29;;;;;;;;;;;21.60;99.90;;;;;;4145931;28;19917;-73
2022/09/07 09:26:32;;;;;;;;;;;21.60;99.90;;;;;;4142782;28;20261;-73
2022/09/07 09:28:32;;;;;;;;;;;21.70;99.90;;;;;;4144973;28;20320;-70
2022/09/07 09:30:33;;;;;;;;;;;21.80;99.90;;;;;;4143833;28;19916;-73
2022/09/07 09:32:35;;;;;;;;;;;22.00;99.90;;;;;;4145650;28;20431;-72
2022/09/07 09:34:36;;;;;;;;;;;22.00;99.90;;;;;;4145898;28;19910;-70
2022/09/07 09:36:44;;;;;;;;;;;22.00;99.90;;;;;;4144317;28;20001;-72
2022/09/07 09:38:44;;;;;;;;;;;22.10;99.90;;;;;;4143972;28;19913;-69
2022/09/07 09:40:50;;;;;;;;;;;22.10;99.90;;;;;;4143823;28;19924;-72
2022/09/07 09:42:58;;;;;;;;;;;22.10;99.90;;;;;;4143838;28;20295;-74
2022/09/07 09:45:04;;;;;;;;;;;22.10;99.90;;;;;;4143186;28;19913;-67
2022/09/07 09:47:05;;;;;;;;;;;22.20;99.90;;;;;;4144715;28;20485;-72
2022/09/07 09:49:21;;;;;;;;;;;22.20;99.90;;;;;;4142939;28;19924;-71
2022/09/07 09:51:22;;;;;;;;;;;22.20;99.90;;;;;;4143767;28;19909;-73
2022/09/07 09:53:28;;;;;;;;;;;22.20;99.90;;;;;;4145222;28;20017;-73
2022/09/07 09:55:33;;;;;;;;;;;22.30;99.90;;;;;;4143682;28;19995;-72
2022/09/07 09:57:50;;;;;;;;;;;22.30;99.90;;;;;;4143579;28;20292;-72
2022/09/07 09:59:59;;;;;;;;;;;22.40;99.90;;;;;;4141841;28;19909;-71
2022/09/07 10:02:15;;;;;;;;;;;22.50;99.90;;;;;;4143254;28;19983;-72
2022/09/07 10:04:19;;;;;;;;;;;22.50;99.90;;;;;;4144327;28;19965;-72
2022/09/07 10:06:19;;;;;;;;;;;22.60;99.90;;;;;;4136196;28;19917;-73
2022/09/07 10:08:27;;;;;;;;;;;22.60;99.90;;;;;;4142445;28;19920;-72
2022/09/07 10:10:28;;;;;;;;;;;22.60;99.90;;;;;;4140350;28;20354;-71
2022/09/07 10:12:31;;;;;;;;;;;22.60;99.90;;;;;;4142446;28;20285;-68
2022/09/07 10:14:34;;;;;;;;;;;22.60;99.90;;;;;;4139602;28;20078;-73
2022/09/07 10:16:39;;;;;;;;;;;22.70;99.90;;;;;;4141552;28;20665;-73
2022/09/07 10:18:52;;;;;;;;;;;22.70;99.90;;;;;;4143686;28;19940;-70
2022/09/07 10:21:09;;;;;;;;;;;22.80;99.90;;;;;;4139555;28;19915;-72
2022/09/07 10:23:21;;;;;;;;;;;22.80;99.90;;;;;;4138244;28;19909;-71
2022/09/07 10:25:26;;;;;;;;;;;22.90;99.90;;;;;;4139269;28;19944;-71
2022/09/07 10:27:32;;;;;;;;;;;22.90;99.90;;;;;;4134324;28;19917;-72
2022/09/07 10:29:37;;;;;;;;;;;22.90;99.90;;;;;;4138490;28;19914;-71
2022/09/07 10:31:56;;;;;;;;;;;23.00;99.90;;;;;;4137456;28;20384;-71
2022/09/07 10:34:00;;;;;;;;;;;23.00;99.90;;;;;;4141019;28;19913;-72
2022/09/07 10:36:08;;;;;;;;;;;23.00;99.90;;;;;;4136604;28;20384;-70
2022/09/07 10:38:15;;;;;;;;;;;23.10;99.90;;;;;;4140914;28;20447;-71
2022/09/07 10:40:20;;;;;;;;;;;23.10;99.90;;;;;;4143513;28;19910;-72
2022/09/07 10:42:24;;;;;;;;;;;23.10;99.90;;;;;;4142341;28;19960;-72
2022/09/07 10:44:36;;;;;;;;;;;23.10;99.90;;;;;;4142608;28;19909;-71
2022/09/07 10:46:50;;;;;;;;;;;23.10;99.90;;;;;;4143049;28;19916;-71
2022/09/07 10:49:02;;;;;;;;;;;23.10;99.90;;;;;;4139170;28;19917;-70
2022/09/07 10:51:07;;;;;;;;;;;23.20;99.90;;;;;;4126747;28;20004;-69
2022/09/07 10:53:23;;;;;;;;;;;23.20;99.90;;;;;;4137544;28;19957;-71
2022/09/07 10:55:30;;;;;;;;;;;23.30;99.90;;;;;;4140202;28;19913;-71
2022/09/07 10:57:50;;;;;;;;;;;23.20;99.90;;;;;;4143907;28;19988;-70
2022/09/07 11:00:01;;;;;;;;;;;23.20;99.90;;;;;;4142103;28;19909;-70
2022/09/07 11:02:19;;;;;;;;;;;23.30;99.90;;;;;;4143552;28;20024;-71
2022/09/07 11:04:39;;;;;;;;;;;23.30;99.90;;;;;;4138912;28;19975;-71
2022/09/07 11:06:40;;;;;;;;;;;23.20;99.90;;;;;;4143044;28;19909;-70
2022/09/07 11:09:01;;;;;;;;;;;23.40;99.90;;;;;;4144186;28;19909;-70
2022/09/07 11:11:01;;;;;;;;;;;23.30;99.90;;;;;;4138316;28;19917;-70
2022/09/07 11:13:04;;;;;;;;;;;23.40;99.90;;;;;;4142168;28;20001;-71
2022/09/07 11:15:07;;;;;;;;;;;23.40;99.90;;;;;;4138224;28;19910;-69
2022/09/07 11:17:14;;;;;;;;;;;23.50;99.90;;;;;;4139252;28;20269;-69
2022/09/07 11:19:33;;;;;;;;;;;23.50;99.90;;;;;;4141885;28;20019;-70
2022/09/07 11:21:44;;;;;;;;;;;23.50;99.90;;;;;;4143178;28;19909;-70
2022/09/07 11:23:51;;;;;;;;;;;23.50;99.90;;;;;;4141697;28;19909;-69
2022/09/07 11:26:00;;;;;;;;;;;23.60;99.90;;;;;;4142968;28;20000;-71
2022/09/07 11:28:11;;;;;;;;;;;23.60;99.90;;;;;;4139252;28;19914;-69
2022/09/07 11:30:15;;;;;;;;;;;23.60;99.90;;;;;;4140203;28;20000;-70
2022/09/07 11:32:26;;;;;;;;;;;23.70;99.90;;;;;;4137631;28;20415;-70
2022/09/07 11:34:27;;;;;;;;;;;23.70;99.90;;;;;;4136960;28;20368;-70
2022/09/07 11:36:31;;;;;;;;;;;23.70;99.90;;;;;;4142638;28;19909;-71
2022/09/07 11:38:40;;;;;;;;;;;23.60;99.90;;;;;;4142708;28;19957;-69
2022/09/07 11:40:57;;;;;;;;;;;23.60;99.90;;;;;;4142162;28;19917;-70
2022/09/07 11:43:17;;;;;;;;;;;23.60;99.90;;;;;;4144163;28;20006;-70
2022/09/07 11:45:26;;;;;;;;;;;23.60;99.90;;;;;;4143364;28;19917;-70
2022/09/07 11:47:43;;;;;;;;;;;23.70;99.90;;;;;;4142625;28;19916;-68
2022/09/07 11:49:44;;;;;;;;;;;23.70;99.90;;;;;;4143666;28;19921;-69
2022/09/07 11:51:51;;;;;;;;;;;23.70;99.90;;;;;;4143712;28;19909;-70
2022/09/07 11:53:55;;;;;;;;;;;23.70;99.90;;;;;;4140054;28;19920;-70
2022/09/07 11:55:58;;;;;;;;;;;23.80;99.90;;;;;;4140021;28;20356;-71
2022/09/07 11:58:05;;;;;;;;;;;23.80;99.90;;;;;;4141085;28;19917;-70
2022/09/07 12:00:09;;;;;;;;;;;23.90;99.90;;;;;;4143538;28;19918;-72